Time;durP1;ratioP1;P1;durP2;ratioP2;P2;SDS_P1;SDS_P2;PMS_P1;PMS_P2;Temp;Humidity;BMP_temperature;BMP_pressure;BME280_temperature;BME280_humidity;BME280_pressure;Samples;Min_cycle;Max_cycle;Signal;HPM_P1;HPM_P2
2022/10/24 00:00:24;;;;;;;;;;;;;;;;;;5087237;28;19903;-46
2022/10/24 00:02:51;;;;;;;;;;;;;;;;;;5087509;28;19950;-48
2022/10/24 00:05:17;;;;;;;;;;;;;;;;;;5087025;28;19911;-48
2022/10/24 00:07:43;;;;;;;;;;;;;;;;;;5086854;28;19904;-46
2022/10/24 00:10:09;;;;;;;;;;;;;;;;;;5106925;28;19911;-49
2022/10/24 00:12:35;;;;;;;;;;;;;;;;;;5107295;28;19911;-49
2022/10/24 00:15:01;;;;;;;;;;;;;;;;;;5106543;28;19907;-47
2022/10/24 00:17:27;;;;;;;;;;;;;;;;;;5105872;28;19935;-50
2022/10/24 00:19:53;;;;;;;;;;;;;;;;;;5107768;28;19904;-49
2022/10/24 00:22:19;;;;;;;;;;;;;;;;;;5107336;28;19943;-49
2022/10/24 00:24:45;;;;;;;;;;;;;;;;;;5104962;28;19908;-49
2022/10/24 00:27:10;;;;;;;;;;;;;;;;;;5086963;28;19911;-49
2022/10/24 00:29:36;;;;;;;;;;;;;;;;;;5086513;28;19912;-50
2022/10/24 00:32:02;;;;;;;;;;;;;;;;;;5086790;28;19911;-49
2022/10/24 00:34:28;;;;;;;;;;;;;;;;;;5086511;28;19900;-51
2022/10/24 00:36:54;;;;;;;;;;;;;;;;;;5087528;28;19904;-49
2022/10/24 00:39:20;;;;;;;;;;;;;;;;;;5086206;28;19974;-49
2022/10/24 00:41:46;;;;;;;;;;;;;;;;;;5086939;28;19908;-47
2022/10/24 00:44:12;;;;;;;;;;;;;;;;;;5104888;28;19949;-50
2022/10/24 00:46:38;;;;;;;;;;;;;;;;;;5106887;28;20017;-48
2022/10/24 00:49:04;;;;;;;;;;;;;;;;;;5106513;28;19907;-49
2022/10/24 00:51:30;;;;;;;;;;;;;;;;;;5111221;28;19911;-49
2022/10/24 00:53:56;;;;;;;;;;;;;;;;;;5096220;28;19985;-49
2022/10/24 00:56:22;;;;;;;;;;;;;;;;;;5091164;28;19982;-49
2022/10/24 00:58:48;;;;;;;;;;;;;;;;;;5090480;28;19915;-47
2022/10/24 01:01:13;;;;;;;;;;;;;;;;;;5090681;28;19931;-49
2022/10/24 01:03:39;;;;;;;;;;;;;;;;;;5103527;28;19907;-49
2022/10/24 01:06:05;;;;;;;;;;;;;;;;;;5111073;28;19908;-50
2022/10/24 01:08:31;;;;;;;;;;;;;;;;;;5110622;28;19934;-49
2022/10/24 01:10:57;;;;;;;;;;;;;;;;;;5111033;28;19904;-47
2022/10/24 01:13:23;;;;;;;;;;;;;;;;;;5111306;28;20011;-50
2022/10/24 01:15:49;;;;;;;;;;;;;;;;;;5110885;28;19964;-51
2022/10/24 01:18:15;;;;;;;;;;;;;;;;;;5109382;28;19917;-47
2022/10/24 01:20:41;;;;;;;;;;;;;;;;;;5110496;28;20302;-48
2022/10/24 01:23:07;;;;;;;;;;;;;;;;;;5110516;28;19904;-48
2022/10/24 01:25:33;;;;;;;;;;;;;;;;;;5110394;28;19904;-51
2022/10/24 01:27:59;;;;;;;;;;;;;;;;;;5110373;28;19915;-47
2022/10/24 01:30:25;;;;;;;;;;;;;;;;;;5110679;28;20830;-50
2022/10/24 01:32:51;;;;;;;;;;;;;;;;;;5109577;28;19919;-49
2022/10/24 01:35:17;;;;;;;;;;;;;;;;;;5110250;28;19903;-47
2022/10/24 01:37:43;;;;;;;;;;;;;;;;;;5098203;28;19943;-49
2022/10/24 01:40:09;;;;;;;;;;;;;;;;;;5089762;28;20013;-50
2022/10/24 01:42:35;;;;;;;;;;;;;;;;;;5089858;28;19912;-46
2022/10/24 01:45:01;;;;;;;;;;;;;;;;;;5089870;28;20361;-50
2022/10/24 01:47:27;;;;;;;;;;;;;;;;;;5089477;28;19930;-47
2022/10/24 01:49:53;;;;;;;;;;;;;;;;;;5089982;28;19941;-49
2022/10/24 01:52:19;;;;;;;;;;;;;;;;;;5089616;28;19965;-47
2022/10/24 01:54:46;;;;;;;;;;;;;;;;;;5089293;28;19908;-48
2022/10/24 01:57:12;;;;;;;;;;;;;;;;;;5089998;28;20282;-48
2022/10/24 01:59:38;;;;;;;;;;;;;;;;;;5089268;28;19899;-46
2022/10/24 02:02:04;;;;;;;;;;;;;;;;;;5089044;28;19927;-49
2022/10/24 02:04:30;;;;;;;;;;;;;;;;;;5089223;28;19904;-49
2022/10/24 02:06:56;;;;;;;;;;;;;;;;;;5089821;28;20010;-50
2022/10/24 02:09:23;;;;;;;;;;;;;;;;;;5105856;28;19987;-49
2022/10/24 02:11:49;;;;;;;;;;;;;;;;;;5108826;28;20354;-49
2022/10/24 02:14:15;;;;;;;;;;;;;;;;;;5109604;28;19904;-48
2022/10/24 02:16:41;;;;;;;;;;;;;;;;;;5108655;28;19912;-48
2022/10/24 02:19:07;;;;;;;;;;;;;;;;;;5109677;28;19908;-45
2022/10/24 02:21:33;;;;;;;;;;;;;;;;;;5109342;28;19903;-48
2022/10/24 02:24:00;;;;;;;;;;;;;;;;;;5109435;28;19962;-47
2022/10/24 02:26:26;;;;;;;;;;;;;;;;;;5109907;28;19911;-48
2022/10/24 02:28:52;;;;;;;;;;;;;;;;;;5109777;28;19915;-50
2022/10/24 02:31:19;;;;;;;;;;;;;;;;;;5108874;28;19903;-49
2022/10/24 02:33:45;;;;;;;;;;;;;;;;;;5089120;28;19904;-51
2022/10/24 02:36:11;;;;;;;;;;;;;;;;;;5089161;28;19915;-49
2022/10/24 02:38:37;;;;;;;;;;;;;;;;;;5088620;28;19911;-48
2022/10/24 02:41:03;;;;;;;;;;;;;;;;;;5088728;28;19908;-49
2022/10/24 02:43:29;;;;;;;;;;;;;;;;;;5088520;28;19947;-47
2022/10/24 02:45:55;;;;;;;;;;;;;;;;;;5089113;28;19926;-50
2022/10/24 02:48:21;;;;;;;;;;;;;;;;;;5106535;28;19915;-47
2022/10/24 02:50:47;;;;;;;;;;;;;;;;;;5108752;28;20012;-49
2022/10/24 02:53:13;;;;;;;;;;;;;;;;;;5109013;28;20383;-48
2022/10/24 02:55:39;;;;;;;;;;;;;;;;;;5108591;28;19908;-51
2022/10/24 02:58:05;;;;;;;;;;;;;;;;;;5108812;28;19950;-51
2022/10/24 03:00:31;;;;;;;;;;;;;;;;;;5107261;28;19914;-48
2022/10/24 03:02:57;;;;;;;;;;;;;;;;;;5108850;28;19907;-50
2022/10/24 03:05:23;;;;;;;;;;;;;;;;;;5109024;28;19903;-45
2022/10/24 03:07:48;;;;;;;;;;;;;;;;;;5108501;28;20029;-50
2022/10/24 03:10:14;;;;;;;;;;;;;;;;;;5095370;28;19977;-48
2022/10/24 03:12:40;;;;;;;;;;;;;;;;;;5087142;28;19914;-50
2022/10/24 03:15:06;;;;;;;;;;;;;;;;;;5088021;28;19946;-49
2022/10/24 03:17:32;;;;;;;;;;;;;;;;;;5087564;28;19911;-49
2022/10/24 03:19:58;;;;;;;;;;;;;;;;;;5088014;28;19949;-50
2022/10/24 03:22:24;;;;;;;;;;;;;;;;;;5088213;28;19935;-50
2022/10/24 03:24:50;;;;;;;;;;;;;;;;;;5087599;28;19908;-49
2022/10/24 03:27:16;;;;;;;;;;;;;;;;;;5087598;28;19935;-50
2022/10/24 03:29:42;;;;;;;;;;;;;;;;;;5087851;28;19923;-50
2022/10/24 03:32:08;;;;;;;;;;;;;;;;;;5087678;28;20366;-49
2022/10/24 03:34:34;;;;;;;;;;;;;;;;;;5087348;28;19912;-47
2022/10/24 03:37:00;;;;;;;;;;;;;;;;;;5087420;28;19966;-49
2022/10/24 03:39:25;;;;;;;;;;;;;;;;;;5088183;28;19907;-50
2022/10/24 03:41:51;;;;;;;;;;;;;;;;;;5087943;28;19908;-48
2022/10/24 03:44:17;;;;;;;;;;;;;;;;;;5087620;28;20022;-47
2022/10/24 03:46:43;;;;;;;;;;;;;;;;;;5086982;28;20231;-46
2022/10/24 03:49:09;;;;;;;;;;;;;;;;;;5087594;28;19908;-51
2022/10/24 03:51:35;;;;;;;;;;;;;;;;;;5087105;28;20003;-48
2022/10/24 03:54:01;;;;;;;;;;;;;;;;;;5087396;28;19935;-49
2022/10/24 03:56:27;;;;;;;;;;;;;;;;;;5086762;28;19973;-47
2022/10/24 03:58:53;;;;;;;;;;;;;;;;;;5087830;28;19925;-50
2022/10/24 04:01:19;;;;;;;;;;;;;;;;;;5087036;28;19908;-47
2022/10/24 04:03:45;;;;;;;;;;;;;;;;;;5087336;28;19920;-49
2022/10/24 04:06:11;;;;;;;;;;;;;;;;;;5087295;28;20295;-47
2022/10/24 04:08:38;;;;;;;;;;;;;;;;;;5086950;28;20006;-50
2022/10/24 04:11:04;;;;;;;;;;;;;;;;;;5104727;28;19908;-46
2022/10/24 04:13:30;;;;;;;;;;;;;;;;;;5107410;28;19904;-49
2022/10/24 04:15:55;;;;;;;;;;;;;;;;;;5107974;28;19908;-48
2022/10/24 04:18:21;;;;;;;;;;;;;;;;;;5106306;28;19912;-48
2022/10/24 04:20:47;;;;;;;;;;;;;;;;;;5107380;28;19908;-46
2022/10/24 04:23:13;;;;;;;;;;;;;;;;;;5107286;28;19904;-48
2022/10/24 04:25:39;;;;;;;;;;;;;;;;;;5107322;28;19947;-50
2022/10/24 04:28:05;;;;;;;;;;;;;;;;;;5107325;28;19915;-45
2022/10/24 04:30:31;;;;;;;;;;;;;;;;;;5093947;28;19915;-47
2022/10/24 04:32:57;;;;;;;;;;;;;;;;;;5087251;28;19941;-50
2022/10/24 04:35:24;;;;;;;;;;;;;;;;;;5087574;28;19904;-47
2022/10/24 04:37:50;;;;;;;;;;;;;;;;;;5086950;28;19908;-48
2022/10/24 04:40:16;;;;;;;;;;;;;;;;;;5086875;28;19930;-50
2022/10/24 04:42:42;;;;;;;;;;;;;;;;;;5086986;28;19914;-49
2022/10/24 04:45:08;;;;;;;;;;;;;;;;;;5086781;28;19908;-49
2022/10/24 04:47:34;;;;;;;;;;;;;;;;;;5086693;28;19951;-49
2022/10/24 04:49:59;;;;;;;;;;;;;;;;;;5086417;28;20010;-51
2022/10/24 04:52:25;;;;;;;;;;;;;;;;;;5087093;28;19904;-48
2022/10/24 04:54:51;;;;;;;;;;;;;;;;;;5086609;28;19968;-46
2022/10/24 04:57:17;;;;;;;;;;;;;;;;;;5086469;28;19912;-49
2022/10/24 04:59:43;;;;;;;;;;;;;;;;;;5086545;28;19900;-50
2022/10/24 05:02:09;;;;;;;;;;;;;;;;;;5086711;28;19908;-49
2022/10/24 05:04:35;;;;;;;;;;;;;;;;;;5086429;28;19920;-46
2022/10/24 05:07:01;;;;;;;;;;;;;;;;;;5086553;28;19904;-49
2022/10/24 05:09:27;;;;;;;;;;;;;;;;;;5086207;28;19919;-50
2022/10/24 05:11:53;;;;;;;;;;;;;;;;;;5096716;28;19912;-46
2022/10/24 05:14:19;;;;;;;;;;;;;;;;;;5106732;28;19972;-49
2022/10/24 05:16:47;;;;;;;;;;;;;;;;;;5107000;28;19907;-49
2022/10/24 05:19:13;;;;;;;;;;;;;;;;;;5106527;28;19914;-50
2022/10/24 05:21:39;;;;;;;;;;;;;;;;;;5106539;28;19899;-47
2022/10/24 05:24:05;;;;;;;;;;;;;;;;;;5107006;28;19926;-46
2022/10/24 05:26:30;;;;;;;;;;;;;;;;;;5105581;28;19918;-46
2022/10/24 05:28:56;;;;;;;;;;;;;;;;;;5106883;28;19995;-46
2022/10/24 05:31:22;;;;;;;;;;;;;;;;;;5107036;28;19979;-50
2022/10/24 05:33:48;;;;;;;;;;;;;;;;;;5106717;28;19908;-49
2022/10/24 05:36:14;;;;;;;;;;;;;;;;;;5107223;28;19904;-49
2022/10/24 05:38:40;;;;;;;;;;;;;;;;;;5098278;28;19966;-50
2022/10/24 05:41:06;;;;;;;;;;;;;;;;;;5109818;28;19915;-52
2022/10/24 05:43:32;;;;;;;;;;;;;;;;;;5109795;28;19961;-48
2022/10/24 05:45:58;;;;;;;;;;;;;;;;;;5105613;28;19934;-48
2022/10/24 05:48:24;;;;;;;;;;;;;;;;;;5110561;28;19947;-50
2022/10/24 05:50:50;;;;;;;;;;;;;;;;;;5109995;28;19908;-51
2022/10/24 05:53:16;;;;;;;;;;;;;;;;;;5109776;28;20381;-48
2022/10/24 05:55:42;;;;;;;;;;;;;;;;;;5109952;28;19956;-49
2022/10/24 05:58:08;;;;;;;;;;;;;;;;;;5110054;28;19907;-51
2022/10/24 06:00:34;;;;;;;;;;;;;;;;;;5108666;28;20327;-52
2022/10/24 06:03:00;;;;;;;;;;;;;;;;;;5098147;28;19919;-50
2022/10/24 06:05:26;;;;;;;;;;;;;;;;;;5091061;28;19912;-50
2022/10/24 06:07:52;;;;;;;;;;;;;;;;;;5105297;28;19908;-50
2022/10/24 06:10:18;;;;;;;;;;;;;;;;;;5088983;28;19935;-49
2022/10/24 06:12:44;;;;;;;;;;;;;;;;;;5089360;28;19998;-49
2022/10/24 06:15:10;;;;;;;;;;;;;;;;;;5090868;28;19912;-48
2022/10/24 06:17:36;;;;;;;;;;;;;;;;;;5091200;28;19943;-50
2022/10/24 06:20:01;;;;;;;;;;;;;;;;;;5089500;28;19911;-48
2022/10/24 06:22:28;;;;;;;;;;;;;;;;;;5108564;28;19951;-52
2022/10/24 06:24:54;;;;;;;;;;;;;;;;;;5109695;28;19979;-52
2022/10/24 06:27:20;;;;;;;;;;;;;;;;;;5110083;28;20002;-47
2022/10/24 06:29:46;;;;;;;;;;;;;;;;;;5109985;28;19908;-49
2022/10/24 06:32:12;;;;;;;;;;;;;;;;;;5109544;28;19908;-46
2022/10/24 06:34:38;;;;;;;;;;;;;;;;;;5097478;28;19911;-47
2022/10/24 06:37:04;;;;;;;;;;;;;;;;;;5090327;28;19962;-49
2022/10/24 06:39:30;;;;;;;;;;;;;;;;;;5102375;28;20010;-48
2022/10/24 06:41:56;;;;;;;;;;;;;;;;;;5103495;28;19904;-51
2022/10/24 06:44:21;;;;;;;;;;;;;;;;;;5089212;28;19908;-51
2022/10/24 06:46:47;;;;;;;;;;;;;;;;;;5090820;28;19981;-52
2022/10/24 06:49:13;;;;;;;;;;;;;;;;;;5109612;28;20007;-49
2022/10/24 06:51:39;;;;;;;;;;;;;;;;;;5107218;28;19904;-48
2022/10/24 06:54:05;;;;;;;;;;;;;;;;;;5092877;28;20409;-47
2022/10/24 06:56:31;;;;;;;;;;;;;;;;;;5108180;28;19910;-49
2022/10/24 06:58:57;;;;;;;;;;;;;;;;;;5092049;28;19908;-50
2022/10/24 07:01:23;;;;;;;;;;;;;;;;;;5089559;28;19943;-51
2022/10/24 07:03:49;;;;;;;;;;;;;;;;;;5101789;28;19903;-52
2022/10/24 07:06:15;;;;;;;;;;;;;;;;;;5089309;28;19908;-50
2022/10/24 07:08:41;;;;;;;;;;;;;;;;;;5096339;28;19930;-51
2022/10/24 07:11:07;;;;;;;;;;;;;;;;;;5108572;28;19908;-48
2022/10/24 07:13:33;;;;;;;;;;;;;;;;;;5100276;28;20002;-49
2022/10/24 07:15:59;;;;;;;;;;;;;;;;;;5095013;28;19912;-50
2022/10/24 07:18:25;;;;;;;;;;;;;;;;;;5092978;28;19991;-52
2022/10/24 07:20:51;;;;;;;;;;;;;;;;;;5098121;28;19934;-49
2022/10/24 07:23:17;;;;;;;;;;;;;;;;;;5110255;27;19934;-53
2022/10/24 07:25:43;;;;;;;;;;;;;;;;;;5109142;28;19913;-52
2022/10/24 07:28:10;;;;;;;;;;;;;;;;;;5106471;28;20359;-49
2022/10/24 07:30:36;;;;;;;;;;;;;;;;;;5105988;28;19903;-50
2022/10/24 07:33:01;;;;;;;;;;;;;;;;;;5108926;28;19957;-50
2022/10/24 07:35:27;;;;;;;;;;;;;;;;;;5098530;28;19981;-51
2022/10/24 07:37:53;;;;;;;;;;;;;;;;;;5090511;28;19912;-50
2022/10/24 07:40:19;;;;;;;;;;;;;;;;;;5099018;28;19907;-49
2022/10/24 07:42:45;;;;;;;;;;;;;;;;;;5088282;28;19927;-50
2022/10/24 07:45:11;;;;;;;;;;;;;;;;;;5088521;28;19915;-48
2022/10/24 07:47:37;;;;;;;;;;;;;;;;;;5088002;28;19966;-49
2022/10/24 07:50:03;;;;;;;;;;;;;;;;;;5087830;28;19951;-47
2022/10/24 07:52:29;;;;;;;;;;;;;;;;;;5110252;27;19911;-52
2022/10/24 07:54:55;;;;;;;;;;;;;;;;;;5129646;27;19903;-47
2022/10/24 07:57:21;;;;;;;;;;;;;;;;;;5116538;27;19903;-51
2022/10/24 07:59:47;;;;;;;;;;;;;;;;;;5107725;28;20290;-52
2022/10/24 08:02:13;;;;;;;;;;;;;;;;;;5092832;28;19908;-48
2022/10/24 08:04:39;;;;;;;;;;;;;;;;;;5087819;28;19998;-49
2022/10/24 08:07:10;;;;;;;;;;;;;;;;;;5089210;28;19908;-50
2022/10/24 08:09:36;;;;;;;;;;;;;;;;;;5106895;28;19952;-48
2022/10/24 08:12:02;;;;;;;;;;;;;;;;;;5106798;28;19986;-47
2022/10/24 08:14:28;;;;;;;;;;;;;;;;;;5107240;28;19912;-51
2022/10/24 08:16:54;;;;;;;;;;;;;;;;;;5105257;28;19930;-50
2022/10/24 08:19:20;;;;;;;;;;;;;;;;;;5102582;28;19912;-50
2022/10/24 08:21:46;;;;;;;;;;;;;;;;;;5106947;28;19999;-51
2022/10/24 08:24:12;;;;;;;;;;;;;;;;;;5108140;28;19903;-50
2022/10/24 08:26:40;;;;;;;;;;;;;;;;;;5107708;28;20637;-47
2022/10/24 08:29:10;;;;;;;;;;;;;;;;;;5107770;28;19998;-46
2022/10/24 08:31:36;;;;;;;;;;;;;;;;;;5106700;28;20431;-49
2022/10/24 08:34:04;;;;;;;;;;;;;;;;;;5108052;28;19903;-51
2022/10/24 08:36:30;;;;;;;;;;;;;;;;;;5097742;28;20243;-49
2022/10/24 08:38:56;;;;;;;;;;;;;;;;;;5108640;28;19910;-51
2022/10/24 08:41:22;;;;;;;;;;;;;;;;;;5108412;28;19907;-48
2022/10/24 08:43:48;;;;;;;;;;;;;;;;;;5101746;28;19911;-51
2022/10/24 08:46:14;;;;;;;;;;;;;;;;;;5128251;28;19913;-50
2022/10/24 08:48:40;;;;;;;;;;;;;;;;;;5128285;27;19912;-52
2022/10/24 08:51:06;;;;;;;;;;;;;;;;;;5107977;27;19903;-52
2022/10/24 08:53:32;;;;;;;;;;;;;;;;;;5107442;28;19946;-51
2022/10/24 08:55:58;;;;;;;;;;;;;;;;;;5107782;28;19915;-51
2022/10/24 08:58:24;;;;;;;;;;;;;;;;;;5106234;28;19912;-52
2022/10/24 09:00:50;;;;;;;;;;;;;;;;;;5107481;28;19957;-52
2022/10/24 09:03:16;;;;;;;;;;;;;;;;;;5107616;28;19994;-51
2022/10/24 09:05:42;;;;;;;;;;;;;;;;;;5107855;28;19904;-47
2022/10/24 09:08:08;;;;;;;;;;;;;;;;;;5107525;28;19919;-47
2022/10/24 09:10:33;;;;;;;;;;;;;;;;;;5108203;28;19904;-51
2022/10/24 09:12:59;;;;;;;;;;;;;;;;;;5111433;28;20006;-50
2022/10/24 09:15:25;;;;;;;;;;;;;;;;;;5098081;28;20375;-49
2022/10/24 09:17:51;;;;;;;;;;;;;;;;;;5109762;28;19931;-49
2022/10/24 09:20:17;;;;;;;;;;;;;;;;;;5116010;27;20009;-51
2022/10/24 09:22:43;;;;;;;;;;;;;;;;;;5115409;27;19908;-50
2022/10/24 09:25:09;;;;;;;;;;;;;;;;;;5098211;28;19934;-48
2022/10/24 09:27:35;;;;;;;;;;;;;;;;;;5109804;28;19915;-52
2022/10/24 09:30:01;;;;;;;;;;;;;;;;;;5104538;28;20322;-49
2022/10/24 09:32:27;;;;;;;;;;;;;;;;;;5106620;27;20302;-49
2022/10/24 09:34:53;;;;;;;;;;;;;;;;;;5092142;28;20655;-51
2022/10/24 09:37:18;;;;;;;;;;;;;;;;;;5093730;27;20040;-48
2022/10/24 09:39:44;;;;;;;;;;;;;;;;;;5095002;28;20892;-50
2022/10/24 09:42:10;;;;;;;;;;;;;;;;;;5104733;27;21043;-51
2022/10/24 09:44:36;;;;;;;;;;;;;;;;;;5101495;28;19941;-49
2022/10/24 09:47:02;;;;;;;;;;;;;;;;;;5101144;27;19919;-52
2022/10/24 09:49:30;;;;;;;;;;;;;;;;;;5102073;28;20002;-51
2022/10/24 09:51:56;;;;;;;;;;;;;;;;;;5101429;28;19903;-48
2022/10/24 09:54:23;;;;;;;;;;;;;;;;;;5109497;28;20394;-50
2022/10/24 09:56:49;;;;;;;;;;;;;;;;;;5109430;28;19915;-49
2022/10/24 09:59:15;;;;;;;;;;;;;;;;;;5109287;28;19903;-52
2022/10/24 10:01:41;;;;;;;;;;;;;;;;;;5109555;28;19907;-48
2022/10/24 10:04:07;;;;;;;;;;;;;;;;;;5087496;28;20079;-48
2022/10/24 10:06:33;;;;;;;;;;;;;;;;;;5080051;28;20742;-50
2022/10/24 10:08:59;;;;;;;;;;;;;;;;;;5091703;28;19916;-49
2022/10/24 10:11:25;;;;;;;;;;;;;;;;;;5087166;28;19938;-51
2022/10/24 10:13:53;;;;;;;;;;;;;;;;;;5081148;28;19912;-48
2022/10/24 10:16:20;;;;;;;;;;;;;;;;;;5097432;28;19907;-49
2022/10/24 10:18:47;;;;;;;;;;;;;;;;;;5097560;28;20336;-52
2022/10/24 10:21:13;;;;;;;;;;;;;;;;;;5093631;28;20401;-49
2022/10/24 10:23:39;;;;;;;;;;;;;;;;;;5091544;28;20007;-49
2022/10/24 10:26:05;;;;;;;;;;;;;;;;;;5109779;28;20438;-50
2022/10/24 10:28:31;;;;;;;;;;;;;;;;;;5108678;28;20374;-50
2022/10/24 10:30:57;;;;;;;;;;;;;;;;;;5103824;28;19915;-51
2022/10/24 10:33:23;;;;;;;;;;;;;;;;;;5098335;28;20053;-47
2022/10/24 10:35:50;;;;;;;;;;;;;;;;;;5108630;27;20328;-49
2022/10/24 10:38:16;;;;;;;;;;;;;;;;;;5093004;28;20397;-52
2022/10/24 10:40:42;;;;;;;;;;;;;;;;;;5109309;28;19908;-51
2022/10/24 10:43:08;;;;;;;;;;;;;;;;;;5107581;28;19904;-50
2022/10/24 10:45:34;;;;;;;;;;;;;;;;;;5089849;28;19931;-51
2022/10/24 10:48:00;;;;;;;;;;;;;;;;;;5089006;28;20689;-50
2022/10/24 10:50:26;;;;;;;;;;;;;;;;;;5089883;28;20002;-51
2022/10/24 10:52:52;;;;;;;;;;;;;;;;;;5101774;28;19904;-50
2022/10/24 10:55:18;;;;;;;;;;;;;;;;;;5103645;28;19911;-51
2022/10/24 10:57:45;;;;;;;;;;;;;;;;;;5101980;28;19904;-48
2022/10/24 11:00:12;;;;;;;;;;;;;;;;;;5105789;28;19938;-48
2022/10/24 11:02:38;;;;;;;;;;;;;;;;;;5107986;28;20405;-48
2022/10/24 11:05:04;;;;;;;;;;;;;;;;;;5095543;28;19943;-51
2022/10/24 11:07:30;;;;;;;;;;;;;;;;;;5107779;28;19915;-49
2022/10/24 11:09:56;;;;;;;;;;;;;;;;;;5095306;28;19958;-51
2022/10/24 11:12:22;;;;;;;;;;;;;;;;;;5102395;28;19912;-48
2022/10/24 11:14:48;;;;;;;;;;;;;;;;;;5092994;28;19959;-46
2022/10/24 11:17:14;;;;;;;;;;;;;;;;;;5095971;28;19908;-52
2022/10/24 11:19:39;;;;;;;;;;;;;;;;;;5088294;28;19908;-49
2022/10/24 11:22:06;;;;;;;;;;;;;;;;;;5093102;28;20249;-53
2022/10/24 11:24:32;;;;;;;;;;;;;;;;;;5089498;28;19947;-49
2022/10/24 11:26:58;;;;;;;;;;;;;;;;;;5105360;28;20365;-52
2022/10/24 11:29:24;;;;;;;;;;;;;;;;;;5108113;28;19912;-48
2022/10/24 11:31:51;;;;;;;;;;;;;;;;;;5107536;28;20337;-49
2022/10/24 11:34:18;;;;;;;;;;;;;;;;;;5104754;28;20052;-49
2022/10/24 11:36:45;;;;;;;;;;;;;;;;;;5089827;28;20370;-51
2022/10/24 11:39:11;;;;;;;;;;;;;;;;;;5085322;28;19942;-51
2022/10/24 11:41:37;;;;;;;;;;;;;;;;;;5086373;28;19961;-48
2022/10/24 11:44:03;;;;;;;;;;;;;;;;;;5087137;28;20410;-48
2022/10/24 11:46:29;;;;;;;;;;;;;;;;;;5095807;28;19907;-52
2022/10/24 11:48:55;;;;;;;;;;;;;;;;;;5105697;28;19996;-49
2022/10/24 11:51:21;;;;;;;;;;;;;;;;;;5107201;28;19908;-50
2022/10/24 11:53:47;;;;;;;;;;;;;;;;;;5090147;28;19908;-51
2022/10/24 11:56:14;;;;;;;;;;;;;;;;;;5086946;28;19911;-48
2022/10/24 11:58:41;;;;;;;;;;;;;;;;;;5098148;28;19994;-48
2022/10/24 12:01:06;;;;;;;;;;;;;;;;;;5102866;28;19918;-50
2022/10/24 12:03:32;;;;;;;;;;;;;;;;;;5099233;28;19911;-52
2022/10/24 12:05:58;;;;;;;;;;;;;;;;;;5091763;28;19927;-50
2022/10/24 12:08:25;;;;;;;;;;;;;;;;;;5107198;28;19915;-48
2022/10/24 12:10:51;;;;;;;;;;;;;;;;;;5097336;28;19919;-52
2022/10/24 12:13:18;;;;;;;;;;;;;;;;;;5106301;28;20309;-48
2022/10/24 12:15:44;;;;;;;;;;;;;;;;;;5087925;28;19939;-50
2022/10/24 12:18:10;;;;;;;;;;;;;;;;;;5086325;28;19966;-51
2022/10/24 12:20:36;;;;;;;;;;;;;;;;;;5086467;28;19912;-52
2022/10/24 12:23:02;;;;;;;;;;;;;;;;;;5086501;28;20435;-51
2022/10/24 12:25:32;;;;;;;;;;;;;;;;;;5092375;28;20336;-51
2022/10/24 12:27:57;;;;;;;;;;;;;;;;;;5086983;28;19980;-50
2022/10/24 12:30:23;;;;;;;;;;;;;;;;;;5089598;28;19911;-52
2022/10/24 12:32:50;;;;;;;;;;;;;;;;;;5105162;28;20306;-51
2022/10/24 12:35:16;;;;;;;;;;;;;;;;;;5092634;28;19911;-49
2022/10/24 12:37:42;;;;;;;;;;;;;;;;;;5086243;28;19908;-51
2022/10/24 12:40:08;;;;;;;;;;;;;;;;;;5085996;28;20370;-48
2022/10/24 12:42:35;;;;;;;;;;;;;;;;;;5085771;28;19939;-50
2022/10/24 12:45:01;;;;;;;;;;;;;;;;;;5086639;28;20386;-51
2022/10/24 12:47:27;;;;;;;;;;;;;;;;;;5101409;28;19912;-52
2022/10/24 12:49:53;;;;;;;;;;;;;;;;;;5110246;28;20298;-52
2022/10/24 12:52:19;;;;;;;;;;;;;;;;;;5110593;28;19915;-52
2022/10/24 12:54:45;;;;;;;;;;;;;;;;;;5107819;28;19919;-50
2022/10/24 12:57:10;;;;;;;;;;;;;;;;;;5107012;28;19919;-50
2022/10/24 12:59:36;;;;;;;;;;;;;;;;;;5099408;27;19919;-51
2022/10/24 13:02:02;;;;;;;;;;;;;;;;;;5103184;28;19939;-48
2022/10/24 13:04:28;;;;;;;;;;;;;;;;;;5109621;28;19916;-51
2022/10/24 13:06:54;;;;;;;;;;;;;;;;;;5111145;28;19911;-51
2022/10/24 13:09:20;;;;;;;;;;;;;;;;;;5106477;28;19915;-52
2022/10/24 13:11:46;;;;;;;;;;;;;;;;;;5100368;28;20302;-51
2022/10/24 13:14:12;;;;;;;;;;;;;;;;;;5107238;28;19907;-52
2022/10/24 13:16:38;;;;;;;;;;;;;;;;;;5110240;28;19904;-47
2022/10/24 13:19:04;;;;;;;;;;;;;;;;;;5110403;28;19900;-47
2022/10/24 13:21:30;;;;;;;;;;;;;;;;;;5109856;28;19950;-51
2022/10/24 13:23:56;;;;;;;;;;;;;;;;;;5109340;28;19903;-51
2022/10/24 13:26:36;;;;;;;2.33;1.80;;;;;;;;;;5092478;28;20818;-51
2022/10/24 13:29:04;;;;;;;2.17;1.42;;;;;;;;;;5098801;28;21338;-52
2022/10/24 13:31:30;;;;;;;1.80;1.38;;;;;;;;;;5108813;27;20023;-52
2022/10/24 13:34:14;;;;;;;1.10;1.00;;;;;;;;;;5109299;28;20030;-50
2022/10/24 13:36:42;;;;;;;1.77;1.33;;;;;;;;;;5103353;28;20020;-48
2022/10/24 13:39:10;;;;;;;1.38;1.20;;;;;;;;;;5103711;28;20457;-50
2022/10/24 13:41:39;;;;;;;1.88;1.33;;;;;;;;;;5088911;28;20036;-52
2022/10/24 13:44:11;;;;;;;1.92;1.30;;;;;;;;;;5089011;28;20055;-52
2022/10/24 13:46:56;;;;;;;1.10;0.98;;;;;;;;;;5086992;28;20544;-50
2022/10/24 13:49:35;;;;;;;2.33;1.20;;;;;;;;;;5092824;28;20036;-49
2022/10/24 13:52:20;;;;;;;1.38;1.08;;;;;;;;;;5093356;28;20345;-50
2022/10/24 13:54:48;;;;;;;1.50;1.00;;;;;;;;;;5088899;28;20103;-51
2022/10/24 13:57:22;;;;;;;1.10;1.00;;;;;;;;;;5089198;28;20449;-50
2022/10/24 13:59:53;;;;;;;0.98;0.93;;;;;;;;;;5109550;28;20331;-48
2022/10/24 14:02:21;;;;;;;1.65;0.90;;;;;;;;;;5106724;28;20039;-49
2022/10/24 14:04:48;;;;;;;1.08;0.85;;;;;;;;;;5088595;28;20036;-50
2022/10/24 14:07:20;;;;;;;1.20;0.90;;;;;;;;;;5088556;28;20036;-48
2022/10/24 14:09:52;;;;;;;1.35;1.13;;;;;;;;;;5091116;28;20490;-48
2022/10/24 14:12:20;;;;;;;0.75;0.63;;;;;;;;;;5101510;27;20831;-49
2022/10/24 14:14:47;;;;;;;0.82;0.75;;;;;;;;;;5093696;28;20030;-48
2022/10/24 14:17:16;;;;;;;1.95;0.77;;;;;;;;;;5099188;28;20103;-48
2022/10/24 14:19:48;;;;;;;2.13;1.20;;;;;;;;;;5109667;28;20371;-50
2022/10/24 14:22:22;;;;;;;0.82;0.82;;;;;;;;;;5109974;28;20028;-51
2022/10/24 14:24:48;;;;;;;;;;;;;;;;;;5109932;28;20054;-49
2022/10/24 14:27:15;;;;;;;1.52;0.80;;;;;;;;;;5106502;28;19908;-48
2022/10/24 14:29:50;;;;;;;1.67;0.90;;;;;;;;;;5100158;27;20024;-50
2022/10/24 14:32:17;;;;;;;1.35;1.00;;;;;;;;;;5096051;28;20019;-52
2022/10/24 14:34:43;;;;;;;0.75;0.70;;;;;;;;;;5109266;28;20079;-51
2022/10/24 14:37:26;;;;;;;0.70;0.70;;;;;;;;;;5108474;28;20106;-52
2022/10/24 14:39:52;;;;;;;1.10;0.90;;;;;;;;;;5096624;28;20490;-51
2022/10/24 14:42:19;;;;;;;0.82;0.82;;;;;;;;;;5106909;28;20035;-52
2022/10/24 14:44:46;;;;;;;1.08;0.63;;;;;;;;;;5108865;27;20098;-52
2022/10/24 14:47:18;;;;;;;1.10;0.90;;;;;;;;;;5101088;28;20038;-50
2022/10/24 14:49:44;;;;;;;1.17;0.90;;;;;;;;;;5100610;28;20034;-47
2022/10/24 14:52:12;;;;;;;0.70;0.70;;;;;;;;;;5108791;28;20066;-52
2022/10/24 14:54:38;;;;;;;1.85;1.25;;;;;;;;;;5088510;28;20047;-47
2022/10/24 14:57:04;;;;;;;;;;;;;;;;;;5089483;28;20036;-51
2022/10/24 14:59:33;;;;;;;;;;;;;;;;;;5088587;28;19916;-53
2022/10/24 15:01:59;;;;;;;;;;;;;;;;;;5089196;28;19911;-49
2022/10/24 15:04:25;;;;;;;;;;;;;;;;;;5088738;28;19954;-51
2022/10/24 15:06:51;;;;;;;;;;;;;;;;;;5088856;28;19915;-50
2022/10/24 15:09:19;;;;;;;;;;;;;;;;;;5094920;28;19915;-51
2022/10/24 15:11:45;;;;;;;;;;;;;;;;;;5103083;27;19915;-49
2022/10/24 15:14:11;;;;;;;;;;;;;;;;;;5109384;28;19939;-49
2022/10/24 15:16:37;;;;;;;;;;;;;;;;;;5099626;28;20409;-49
2022/10/24 15:19:04;;;;;;;;;;;;;;;;;;5099386;28;19911;-51
2022/10/24 15:21:30;;;;;;;;;;;;;;;;;;5107874;28;19907;-49
2022/10/24 15:23:57;;;;;;;;;;;;;;;;;;5102497;28;19907;-52
2022/10/24 15:26:23;;;;;;;;;;;;;;;;;;5108008;28;20299;-49
2022/10/24 15:28:49;;;;;;;;;;;;;;;;;;5103420;28;20291;-48
2022/10/24 15:31:15;;;;;;;;;;;;;;;;;;5088016;28;20302;-50
2022/10/24 15:33:42;;;;;;;;;;;;;;;;;;5087306;28;20049;-48
2022/10/24 15:36:08;;;;;;;;;;;;;;;;;;5096707;28;19919;-49
2022/10/24 15:38:34;;;;;;;;;;;;;;;;;;5100951;28;19912;-48
2022/10/24 15:41:00;;;;;;;;;;;;;;;;;;5105710;28;19916;-52
2022/10/24 15:43:26;;;;;;;;;;;;;;;;;;5098436;28;20403;-51
2022/10/24 15:45:53;;;;;;;;;;;;;;;;;;5103553;28;19960;-49
2022/10/24 15:48:19;;;;;;;;;;;;;;;;;;5095781;27;20413;-48
2022/10/24 15:50:45;;;;;;;;;;;;;;;;;;5099150;28;20002;-49
2022/10/24 15:53:11;;;;;;;;;;;;;;;;;;5121752;27;19908;-48
2022/10/24 15:55:37;;;;;;;;;;;;;;;;;;5105299;27;19914;-48
2022/10/24 15:58:03;;;;;;;;;;;;;;;;;;5107231;28;19913;-49
2022/10/24 16:00:29;;;;;;;;;;;;;;;;;;5106825;28;19994;-48
2022/10/24 16:02:55;;;;;;;;;;;;;;;;;;5106939;28;19904;-49
2022/10/24 16:05:22;;;;;;;;;;;;;;;;;;5101097;28;19995;-48
2022/10/24 16:07:50;;;;;;;;;;;;;;;;;;5085799;28;20387;-48
2022/10/24 16:10:18;;;;;;;;;;;;;;;;;;5093166;28;19957;-48
2022/10/24 16:12:44;;;;;;;;;;;;;;;;;;5101141;28;19952;-49
2022/10/24 16:15:10;;;;;;;;;;;;;;;;;;5106964;28;19915;-50
2022/10/24 16:17:39;;;;;;;;;;;;;;;;;;5106669;28;19904;-51
2022/10/24 16:20:05;;;;;;;;;;;;;;;;;;5106144;28;19952;-47
2022/10/24 16:22:30;;;;;;;;;;;;;;;;;;5105758;28;20398;-49
2022/10/24 16:24:56;;;;;;;;;;;;;;;;;;5092629;28;19908;-52
2022/10/24 16:27:22;;;;;;;;;;;;;;;;;;5103858;28;19930;-49